createdAt,value
2023-02-28T00:00:19.039Z,20.59
2023-02-28T00:02:45.382Z,20.59
2023-02-28T00:05:12.284Z,20.59
2023-02-28T00:07:38.614Z,20.58
2023-02-28T00:10:05.462Z,20.58
2023-02-28T00:12:31.781Z,20.56
2023-02-28T00:14:58.097Z,20.57
2023-02-28T00:17:24.717Z,20.56
2023-02-28T00:19:51.305Z,20.56
2023-02-28T00:22:21.005Z,20.58
2023-02-28T00:24:47.903Z,20.58
2023-02-28T00:27:14.490Z,20.57
2023-02-28T00:29:40.808Z,20.58
2023-02-28T00:32:07.188Z,20.57
2023-02-28T00:34:38.505Z,20.56
2023-02-28T00:37:05.780Z,20.56
2023-02-28T00:39:33.889Z,20.54
2023-02-28T00:42:00.221Z,20.54
2023-02-28T00:44:26.539Z,20.54
2023-02-28T00:46:54.942Z,20.53
2023-02-28T00:49:24.516Z,20.51
2023-02-28T00:51:50.961Z,20.53
2023-02-28T00:54:19.485Z,20.51
2023-02-28T00:56:47.503Z,20.51
2023-02-28T00:59:14.064Z,20.53
2023-02-28T01:01:40.438Z,20.53
2023-02-28T01:04:06.899Z,20.54
2023-02-28T01:06:33.251Z,20.50
2023-02-28T01:08:59.730Z,20.53
2023-02-28T01:11:26.260Z,20.51
2023-02-28T01:13:53.149Z,20.50
2023-02-28T01:16:19.471Z,20.49
2023-02-28T01:18:45.800Z,20.49
2023-02-28T01:21:13.313Z,20.48
2023-02-28T01:23:39.977Z,20.48
2023-02-28T01:26:10.527Z,20.49
2023-02-28T01:28:39.614Z,20.49
2023-02-28T01:31:06.430Z,20.49
2023-02-28T01:33:32.925Z,20.50
2023-02-28T01:36:19.872Z,20.50
2023-02-28T01:38:46.209Z,20.50
2023-02-28T01:41:15.929Z,20.50
2023-02-28T01:43:45.347Z,20.49
2023-02-28T01:46:12.752Z,20.47
2023-02-28T01:48:39.832Z,20.47
2023-02-28T01:51:11.868Z,20.46
2023-02-28T01:53:39.067Z,20.45
2023-02-28T01:56:05.987Z,20.45
2023-02-28T01:58:32.307Z,20.45
2023-02-28T02:00:58.662Z,20.45
2023-02-28T02:03:26.644Z,20.45
2023-02-28T02:05:52.966Z,20.46
2023-02-28T02:08:26.227Z,20.47
2023-02-28T02:10:54.877Z,20.46
2023-02-28T02:13:35.083Z,20.45
2023-02-28T02:16:24.288Z,20.45
2023-02-28T02:18:54.532Z,20.45
2023-02-28T02:21:35.023Z,20.44
2023-02-28T02:24:12.649Z,20.43
2023-02-28T02:26:52.691Z,20.42
2023-02-28T02:29:31.891Z,20.42
2023-02-28T02:32:06.272Z,20.42
2023-02-28T02:34:40.586Z,20.40
2023-02-28T02:37:12.409Z,20.41
2023-02-28T02:39:53.753Z,20.42
2023-02-28T02:42:25.781Z,20.42
2023-02-28T02:44:56.784Z,20.42
2023-02-28T02:47:25.124Z,20.42
2023-02-28T02:49:52.527Z,20.42
2023-02-28T02:52:19.566Z,20.41
2023-02-28T02:54:46.506Z,20.40
2023-02-28T02:57:14.510Z,20.40
2023-02-28T02:59:41.065Z,20.39
2023-02-28T03:02:08.067Z,20.39
2023-02-28T03:04:37.315Z,20.38
2023-02-28T03:07:03.973Z,20.39
2023-02-28T03:09:30.302Z,20.39
2023-02-28T03:11:56.720Z,20.40
2023-02-28T03:14:23.004Z,20.40
2023-02-28T03:16:52.468Z,20.39
2023-02-28T03:19:21.776Z,20.39
2023-02-28T03:21:56.250Z,20.39
2023-02-28T03:24:28.207Z,20.39
2023-02-28T03:26:56.567Z,20.38
2023-02-28T03:29:46.181Z,20.37
2023-02-28T03:32:25.892Z,20.36
2023-02-28T03:34:55.477Z,20.35
2023-02-28T03:37:22.390Z,20.35
2023-02-28T03:39:50.238Z,20.34
2023-02-28T03:42:18.492Z,20.34
2023-02-28T03:44:46.576Z,20.36
2023-02-28T03:47:22.316Z,20.35
2023-02-28T03:49:55.167Z,20.36
2023-02-28T03:52:21.742Z,20.37
2023-02-28T03:54:51.916Z,20.38
2023-02-28T03:57:23.715Z,20.39
2023-02-28T03:59:51.877Z,20.40
2023-02-28T04:02:19.489Z,20.39
2023-02-28T04:04:49.406Z,20.40
2023-02-28T04:07:16.160Z,20.39
2023-02-28T04:09:42.484Z,20.38
2023-02-28T04:12:08.831Z,20.36
2023-02-28T04:14:35.225Z,20.37
2023-02-28T04:17:01.545Z,20.36
2023-02-28T04:19:27.869Z,20.34
2023-02-28T04:21:54.384Z,20.33
2023-02-28T04:24:21.664Z,20.34
2023-02-28T04:26:48.779Z,20.34
2023-02-28T04:29:16.506Z,20.34
2023-02-28T04:31:42.873Z,20.34
2023-02-28T04:34:09.244Z,20.33
2023-02-28T04:36:35.578Z,20.32
2023-02-28T04:39:01.932Z,20.31
2023-02-28T04:41:31.687Z,20.30
2023-02-28T04:43:58.738Z,20.30
2023-02-28T04:46:25.089Z,20.29
2023-02-28T04:48:51.426Z,20.32
2023-02-28T04:51:18.132Z,20.32
2023-02-28T04:53:44.518Z,20.33
2023-02-28T04:56:14.315Z,20.33
2023-02-28T04:58:40.699Z,20.34
2023-02-28T05:01:13.584Z,20.33
2023-02-28T05:03:41.551Z,20.35
2023-02-28T05:06:08.425Z,20.35
2023-02-28T05:08:34.757Z,20.35
2023-02-28T05:11:04.245Z,20.35
2023-02-28T05:13:30.592Z,20.34
2023-02-28T05:15:56.961Z,20.32
2023-02-28T05:18:23.296Z,20.32
2023-02-28T05:20:49.651Z,20.31
2023-02-28T05:23:23.328Z,20.30
2023-02-28T05:25:49.685Z,20.29
2023-02-28T05:28:16.041Z,20.30
2023-02-28T05:30:42.377Z,20.29
2023-02-28T05:33:11.074Z,20.29
2023-02-28T05:35:38.682Z,20.28
2023-02-28T05:38:05.053Z,20.28
2023-02-28T05:40:31.433Z,20.26
2023-02-28T05:42:57.785Z,20.25
2023-02-28T05:45:24.111Z,20.25
2023-02-28T05:47:50.431Z,20.24
2023-02-28T05:50:16.762Z,20.23
2023-02-28T05:52:43.490Z,20.22
2023-02-28T05:55:09.937Z,20.22
2023-02-28T05:57:36.276Z,20.24
2023-02-28T06:00:02.807Z,20.24
2023-02-28T06:02:39.401Z,20.25
2023-02-28T06:05:05.940Z,20.32
2023-02-28T06:07:32.300Z,20.36
2023-02-28T06:09:58.636Z,20.40
2023-02-28T06:12:24.998Z,20.44
2023-02-28T06:14:51.319Z,20.50
2023-02-28T06:17:17.648Z,20.45
2023-02-28T06:19:44.353Z,20.64
2023-02-28T06:22:10.704Z,20.74
2023-02-28T06:24:37.051Z,20.81
2023-02-28T06:27:05.943Z,20.84
2023-02-28T06:29:33.245Z,20.71
2023-02-28T06:31:59.661Z,20.57
2023-02-28T06:34:26.050Z,20.74
2023-02-28T06:36:52.421Z,20.80
2023-02-28T06:39:18.966Z,20.84
2023-02-28T06:41:54.951Z,20.88
2023-02-28T06:44:22.285Z,20.89
2023-02-28T06:46:48.620Z,20.90
2023-02-28T06:49:15.309Z,20.90
2023-02-28T06:51:42.537Z,20.95
2023-02-28T06:54:11.729Z,20.95
2023-02-28T06:56:38.048Z,20.98
2023-02-28T06:59:04.473Z,21.01
2023-02-28T07:01:33.003Z,21.08
2023-02-28T07:03:59.587Z,20.91
2023-02-28T07:06:25.943Z,18.59
2023-02-28T07:08:53.186Z,19.25
2023-02-28T07:11:19.916Z,20.14
2023-02-28T07:13:47.557Z,20.48
2023-02-28T07:16:14.669Z,20.60
2023-02-28T07:18:41.055Z,20.27
2023-02-28T07:21:08.460Z,20.05
2023-02-28T07:23:34.958Z,19.91
2023-02-28T07:26:01.289Z,19.82
2023-02-28T07:28:27.622Z,19.75
2023-02-28T07:30:53.977Z,19.73
2023-02-28T07:33:20.371Z,19.92
2023-02-28T07:35:46.732Z,20.32
2023-02-28T07:38:14.575Z,20.51
2023-02-28T07:40:40.916Z,20.64
2023-02-28T07:43:07.235Z,20.52
2023-02-28T07:45:35.397Z,20.42
2023-02-28T07:48:01.863Z,20.25
2023-02-28T07:50:31.881Z,20.46
2023-02-28T07:52:58.977Z,20.20
2023-02-28T07:55:25.337Z,20.15
2023-02-28T07:57:51.661Z,20.39
2023-02-28T08:00:18.085Z,20.51
2023-02-28T08:02:44.605Z,20.57
2023-02-28T08:05:11.080Z,20.56
2023-02-28T08:07:37.487Z,20.43
2023-02-28T08:10:03.846Z,20.67
2023-02-28T08:12:30.252Z,20.81
2023-02-28T08:14:56.581Z,20.89
2023-02-28T08:17:22.967Z,20.92
2023-02-28T08:19:49.304Z,20.97
2023-02-28T08:22:15.659Z,21.02
2023-02-28T08:24:42.667Z,21.01
2023-02-28T08:27:08.985Z,21.05
2023-02-28T08:29:35.317Z,21.07
2023-02-28T08:32:02.025Z,21.08
2023-02-28T08:34:28.442Z,20.74
2023-02-28T08:36:55.064Z,20.57
2023-02-28T08:39:21.502Z,20.72
2023-02-28T08:41:51.150Z,20.83
2023-02-28T08:44:19.893Z,20.85
2023-02-28T08:46:46.214Z,20.87
2023-02-28T08:49:12.630Z,20.84
2023-02-28T08:51:39.387Z,20.82
2023-02-28T08:54:05.718Z,21.04
2023-02-28T08:56:32.049Z,21.01
2023-02-28T08:58:58.414Z,21.21
2023-02-28T09:01:28.875Z,21.42
2023-02-28T09:06:26.909Z,17.55
2023-02-28T09:08:53.363Z,17.94
2023-02-28T09:11:20.011Z,18.67
2023-02-28T09:13:46.574Z,19.63
2023-02-28T09:16:13.942Z,20.23
2023-02-28T09:18:40.312Z,20.46
2023-02-28T09:21:10.586Z,20.62
2023-02-28T09:23:39.138Z,20.65
2023-02-28T09:26:05.518Z,20.69
2023-02-28T09:28:31.861Z,20.73
2023-02-28T09:30:59.813Z,20.71
2023-02-28T09:33:26.489Z,20.71
2023-02-28T09:35:58.197Z,20.71
2023-02-28T09:38:24.536Z,20.59
2023-02-28T09:40:51.952Z,20.58
2023-02-28T09:43:57.868Z,20.55
2023-02-28T09:46:27.370Z,20.53
2023-02-28T09:48:53.756Z,20.58
2023-02-28T09:51:31.688Z,20.68
2023-02-28T09:54:01.814Z,20.78
2023-02-28T09:56:32.927Z,20.85
2023-02-28T09:59:03.345Z,20.88
2023-02-28T10:01:38.163Z,20.82
2023-02-28T10:04:05.776Z,20.56
2023-02-28T10:06:37.548Z,20.89
2023-02-28T10:09:21.661Z,21.07
2023-02-28T10:14:21.314Z,21.20
2023-02-28T10:16:54.586Z,21.27
2023-02-28T10:19:22.545Z,21.20
2023-02-28T10:21:50.879Z,21.24
2023-02-28T10:24:21.744Z,21.19
2023-02-28T10:26:48.424Z,21.28
2023-02-28T10:29:14.781Z,21.01
2023-02-28T10:31:41.272Z,20.86
2023-02-28T10:34:08.737Z,20.74
2023-02-28T10:36:36.209Z,20.74
2023-02-28T10:39:02.686Z,20.82
2023-02-28T10:41:30.106Z,20.86
2023-02-28T10:44:12.906Z,20.87
2023-02-28T10:46:39.553Z,20.90
2023-02-28T10:49:06.446Z,20.91
2023-02-28T10:51:37.167Z,20.93
2023-02-28T10:54:03.530Z,20.90
2023-02-28T10:56:30.335Z,20.91
2023-02-28T10:59:09.159Z,20.88
2023-02-28T11:01:39.735Z,20.98
2023-02-28T11:04:19.654Z,20.93
2023-02-28T11:06:46.031Z,20.99
2023-02-28T11:09:26.049Z,20.97
2023-02-28T11:11:53.858Z,20.98
2023-02-28T11:14:24.944Z,21.10
2023-02-28T11:16:51.270Z,21.39
2023-02-28T11:19:25.275Z,21.63
2023-02-28T11:21:58.365Z,21.68
2023-02-28T11:24:28.349Z,21.71
2023-02-28T11:26:54.768Z,21.34
2023-02-28T11:29:27.953Z,21.30
2023-02-28T11:32:09.600Z,21.37
2023-02-28T11:34:36.398Z,21.33
2023-02-28T11:37:05.789Z,21.33
2023-02-28T11:39:32.436Z,21.27
2023-02-28T11:41:58.722Z,21.28
2023-02-28T11:44:24.980Z,21.34
2023-02-28T11:47:02.097Z,21.40
2023-02-28T11:49:36.061Z,21.39
2023-02-28T11:52:04.103Z,21.36
2023-02-28T11:54:37.468Z,21.42
2023-02-28T11:57:27.145Z,21.43
2023-02-28T11:59:57.379Z,21.44
2023-02-28T12:02:30.771Z,21.45
2023-02-28T12:05:15.763Z,21.54
2023-02-28T12:07:50.422Z,21.46
2023-02-28T12:10:26.949Z,21.45
2023-02-28T12:13:06.495Z,21.45
2023-02-28T12:15:45.063Z,16.94
2023-02-28T12:18:18.698Z,18.66
2023-02-28T12:20:47.426Z,19.93
2023-02-28T12:23:20.793Z,20.41
2023-02-28T12:25:51.567Z,20.87
2023-02-28T12:28:18.885Z,21.19
2023-02-28T12:30:49.263Z,21.33
2023-02-28T12:33:15.651Z,21.44
2023-02-28T12:35:44.850Z,21.55
2023-02-28T12:38:18.085Z,21.59
2023-02-28T12:40:45.481Z,21.63
2023-02-28T12:43:11.866Z,21.68
2023-02-28T12:45:41.164Z,21.68
2023-02-28T12:48:08.940Z,21.75
2023-02-28T12:50:35.344Z,21.80
2023-02-28T12:53:03.630Z,21.82
2023-02-28T12:55:38.484Z,21.82
2023-02-28T12:58:23.613Z,21.86
2023-02-28T13:01:02.280Z,21.92
2023-02-28T13:03:37.840Z,21.95
2023-02-28T13:06:18.103Z,21.95
2023-02-28T13:08:51.842Z,21.98
2023-02-28T13:11:29.738Z,22.00
2023-02-28T13:14:03.233Z,21.93
2023-02-28T13:16:29.618Z,21.81
2023-02-28T13:19:08.720Z,21.75
2023-02-28T13:21:36.418Z,21.82
2023-02-28T13:24:04.003Z,21.80
2023-02-28T13:26:39.179Z,21.88
2023-02-28T13:29:11.525Z,21.87
2023-02-28T13:31:56.602Z,21.92
2023-02-28T13:34:22.940Z,21.93
2023-02-28T13:36:49.308Z,21.93
2023-02-28T13:39:35.378Z,21.96
2023-02-28T13:42:22.421Z,21.78
2023-02-28T13:45:07.540Z,21.66
2023-02-28T13:47:33.913Z,21.85
2023-02-28T13:50:23.318Z,22.04
2023-02-28T13:52:54.104Z,22.14
2023-02-28T13:55:23.453Z,22.20
2023-02-28T13:57:50.346Z,22.25
2023-02-28T14:00:35.586Z,22.23
2023-02-28T14:03:06.693Z,22.28
2023-02-28T14:05:33.633Z,22.30
2023-02-28T14:08:00.580Z,22.41
2023-02-28T14:10:31.391Z,22.35
2023-02-28T14:12:59.102Z,22.42
2023-02-28T14:15:29.408Z,22.35
2023-02-28T14:17:55.972Z,21.85
2023-02-28T14:20:22.686Z,21.68
2023-02-28T14:22:55.391Z,22.03
2023-02-28T14:25:32.566Z,22.06
2023-02-28T14:28:13.765Z,21.67
2023-02-28T14:31:01.231Z,21.60
2023-02-28T14:33:27.599Z,21.43
2023-02-28T14:36:17.018Z,21.50
2023-02-28T14:38:44.544Z,21.64
2023-02-28T14:41:16.060Z,21.77
2023-02-28T14:43:49.109Z,21.79
2023-02-28T14:46:15.522Z,21.97
2023-02-28T14:48:42.070Z,22.14
2023-02-28T14:51:14.420Z,22.41
2023-02-28T14:53:40.812Z,22.44
2023-02-28T14:56:07.185Z,22.47
2023-02-28T14:58:33.733Z,22.54
2023-02-28T15:01:01.079Z,22.67
2023-02-28T15:03:30.044Z,22.69
2023-02-28T15:05:57.076Z,22.67
2023-02-28T15:08:23.433Z,22.70
2023-02-28T15:10:53.966Z,22.65
2023-02-28T15:13:20.284Z,22.65
2023-02-28T15:16:05.628Z,22.70
2023-02-28T15:18:32.276Z,22.59
2023-02-28T15:20:59.584Z,22.53
2023-02-28T15:23:25.899Z,22.57
2023-02-28T15:25:52.243Z,22.54
2023-02-28T15:28:19.515Z,22.50
2023-02-28T15:30:56.427Z,22.51
2023-02-28T15:33:23.713Z,22.53
2023-02-28T15:35:50.092Z,22.62
2023-02-28T15:38:22.621Z,22.65
2023-02-28T15:40:58.258Z,22.65
2023-02-28T15:43:28.568Z,22.59
2023-02-28T15:46:08.355Z,22.51
2023-02-28T15:48:45.161Z,22.47
2023-02-28T15:51:24.886Z,22.54
2023-02-28T15:53:52.154Z,22.61
2023-02-28T15:56:23.502Z,22.66
2023-02-28T15:58:49.816Z,22.61
2023-02-28T16:01:30.974Z,22.58
2023-02-28T16:03:58.890Z,22.55
2023-02-28T16:06:34.189Z,22.48
2023-02-28T16:09:00.497Z,22.54
2023-02-28T16:11:27.011Z,22.55
2023-02-28T16:13:53.431Z,22.61
2023-02-28T16:16:20.367Z,22.61
2023-02-28T16:18:46.768Z,22.57
2023-02-28T16:21:13.075Z,22.58
2023-02-28T16:23:39.409Z,22.59
2023-02-28T16:26:05.909Z,22.26
2023-02-28T16:28:33.398Z,22.20
2023-02-28T16:31:03.659Z,22.13
2023-02-28T16:33:30.802Z,22.04
2023-02-28T16:35:57.133Z,21.93
2023-02-28T16:38:25.746Z,21.90
2023-02-28T16:40:52.083Z,21.23
2023-02-28T16:43:19.112Z,20.91
2023-02-28T16:45:45.491Z,21.10
2023-02-28T16:48:12.200Z,21.30
2023-02-28T16:50:38.536Z,21.40
2023-02-28T16:53:04.880Z,21.47
2023-02-28T16:55:31.228Z,21.51
2023-02-28T16:57:58.312Z,21.55
2023-02-28T17:00:24.674Z,21.52
2023-02-28T17:02:51.715Z,21.56
2023-02-28T17:05:19.577Z,21.54
2023-02-28T17:07:45.905Z,21.51
2023-02-28T17:10:12.228Z,21.48
2023-02-28T17:12:38.565Z,21.47
2023-02-28T17:15:05.049Z,21.40
2023-02-28T17:17:32.125Z,21.37
2023-02-28T17:19:58.476Z,21.39
2023-02-28T17:22:26.810Z,21.38
2023-02-28T17:24:56.463Z,21.37
2023-02-28T17:27:22.833Z,21.34
2023-02-28T17:29:49.147Z,21.33
2023-02-28T17:32:18.363Z,21.31
2023-02-28T17:34:46.660Z,21.30
2023-02-28T17:37:13.015Z,21.30
2023-02-28T17:39:39.328Z,21.27
2023-02-28T17:42:05.667Z,21.27
2023-02-28T17:44:32.004Z,21.23
2023-02-28T17:46:58.458Z,21.24
2023-02-28T17:49:24.781Z,21.23
2023-02-28T17:51:51.608Z,21.18
2023-02-28T17:54:19.157Z,18.97
2023-02-28T17:56:45.576Z,19.37
2023-02-28T17:59:11.887Z,20.14
2023-02-28T18:01:38.229Z,20.60
2023-02-28T18:04:04.620Z,20.41
2023-02-28T18:06:31.193Z,20.54
2023-02-28T18:08:57.728Z,20.77
2023-02-28T18:11:24.239Z,20.86
2023-02-28T18:13:51.479Z,20.93
2023-02-28T18:16:18.031Z,20.98
2023-02-28T18:18:44.474Z,21.00
2023-02-28T18:21:11.374Z,21.04
2023-02-28T18:23:37.728Z,21.04
2023-02-28T18:26:07.573Z,21.03
2023-02-28T18:28:34.799Z,21.04
2023-02-28T18:31:07.540Z,21.03
2023-02-28T18:33:33.931Z,21.03
2023-02-28T18:36:00.330Z,21.11
2023-02-28T18:38:26.692Z,21.25
2023-02-28T18:40:53.848Z,21.31
2023-02-28T18:43:20.202Z,21.32
2023-02-28T18:45:46.539Z,21.40
2023-02-28T18:48:14.892Z,21.46
2023-02-28T18:50:42.033Z,21.49
2023-02-28T18:53:08.365Z,21.52
2023-02-28T18:55:34.758Z,21.55
2023-02-28T18:58:01.095Z,21.56
2023-02-28T19:00:27.503Z,21.48
2023-02-28T19:02:53.954Z,21.42
2023-02-28T19:05:20.377Z,21.39
2023-02-28T19:07:46.732Z,21.33
2023-02-28T19:10:13.442Z,21.27
2023-02-28T19:12:39.971Z,21.21
2023-02-28T19:15:06.545Z,21.07
2023-02-28T19:17:33.165Z,21.16
2023-02-28T19:19:59.527Z,21.09
2023-02-28T19:22:26.131Z,21.06
2023-02-28T19:24:52.511Z,21.12
2023-02-28T19:27:19.670Z,21.14
2023-02-28T19:29:49.784Z,21.15
2023-02-28T19:32:16.369Z,21.17
2023-02-28T19:34:42.923Z,21.16
2023-02-28T19:37:09.584Z,21.16
2023-02-28T19:39:41.442Z,21.17
2023-02-28T19:42:11.393Z,21.16
2023-02-28T19:44:37.760Z,21.16
2023-02-28T19:47:04.107Z,21.15
2023-02-28T19:49:30.487Z,21.15
2023-02-28T19:51:56.805Z,21.13
2023-02-28T19:54:23.441Z,21.13
2023-02-28T19:56:49.763Z,21.09
2023-02-28T19:59:21.206Z,21.08
2023-02-28T20:01:48.859Z,21.08
2023-02-28T20:04:15.237Z,21.05
2023-02-28T20:06:41.582Z,21.10
2023-02-28T20:09:07.913Z,21.12
2023-02-28T20:11:34.244Z,21.12
2023-02-28T20:14:05.202Z,21.06
2023-02-28T20:16:32.045Z,21.03
2023-02-28T20:18:58.447Z,21.01
2023-02-28T20:21:24.773Z,20.99
2023-02-28T20:23:51.106Z,21.00
2023-02-28T20:26:20.007Z,20.99
2023-02-28T20:28:46.463Z,20.99
2023-02-28T20:31:16.746Z,20.99
2023-02-28T20:33:45.593Z,20.99
2023-02-28T20:36:13.454Z,20.99
2023-02-28T20:38:39.866Z,20.99
2023-02-28T20:41:06.953Z,21.00
2023-02-28T20:43:33.386Z,20.99
2023-02-28T20:46:03.308Z,20.99
2023-02-28T20:48:30.106Z,20.99
2023-02-28T20:50:56.628Z,20.98
2023-02-28T20:53:24.194Z,20.97
2023-02-28T20:55:56.908Z,20.96
2023-02-28T20:58:23.722Z,20.95
2023-02-28T21:00:50.040Z,20.95
2023-02-28T21:03:24.024Z,20.92
2023-02-28T21:05:50.340Z,20.91
2023-02-28T21:08:16.802Z,20.90
2023-02-28T21:10:43.273Z,20.89
2023-02-28T21:13:09.812Z,20.89
2023-02-28T21:15:39.082Z,20.88
2023-02-28T21:18:05.548Z,20.87
2023-02-28T21:20:31.960Z,20.87
2023-02-28T21:22:58.356Z,20.87
2023-02-28T21:25:25.105Z,20.86
2023-02-28T21:27:55.523Z,19.55
2023-02-28T21:30:22.037Z,20.06
2023-02-28T21:32:48.363Z,20.39
2023-02-28T21:35:14.934Z,20.58
2023-02-28T21:37:41.285Z,20.66
2023-02-28T21:40:08.425Z,20.75
2023-02-28T21:42:34.787Z,20.78
2023-02-28T21:45:01.770Z,20.80
2023-02-28T21:47:28.809Z,20.80
2023-02-28T21:49:55.268Z,20.79
2023-02-28T21:52:21.941Z,20.79
2023-02-28T21:54:48.765Z,20.77
2023-02-28T21:57:15.997Z,20.76
2023-02-28T21:59:42.762Z,20.75
2023-02-28T22:02:10.601Z,20.74
2023-02-28T22:04:36.932Z,20.72
2023-02-28T22:07:03.260Z,20.70
2023-02-28T22:09:29.698Z,20.68
2023-02-28T22:11:56.245Z,20.67
2023-02-28T22:14:22.612Z,20.65
2023-02-28T22:16:52.498Z,20.64
2023-02-28T22:19:20.037Z,20.64
2023-02-28T22:21:47.316Z,20.61
2023-02-28T22:24:14.593Z,20.60
2023-02-28T22:26:41.081Z,20.59
2023-02-28T22:29:07.630Z,20.57
2023-02-28T22:31:34.443Z,20.55
2023-02-28T22:34:01.776Z,20.56
2023-02-28T22:36:28.587Z,20.56
2023-02-28T22:38:55.161Z,20.54
2023-02-28T22:41:22.158Z,20.53
2023-02-28T22:43:55.249Z,20.50
2023-02-28T22:46:21.706Z,20.50
2023-02-28T22:48:48.785Z,20.48
2023-02-28T22:51:15.802Z,20.47
2023-02-28T22:53:42.314Z,20.46
2023-02-28T22:56:09.002Z,20.46
2023-02-28T22:58:35.590Z,20.45
2023-02-28T23:01:11.964Z,20.44
2023-02-28T23:03:38.327Z,20.41
2023-02-28T23:06:11.987Z,20.41
2023-02-28T23:08:38.334Z,20.40
2023-02-28T23:11:04.929Z,20.40
2023-02-28T23:13:31.270Z,20.39
2023-02-28T23:15:57.618Z,20.39
2023-02-28T23:18:23.951Z,20.40
2023-02-28T23:20:50.265Z,20.43
2023-02-28T23:23:16.615Z,20.43
2023-02-28T23:25:42.935Z,20.45
2023-02-28T23:28:10.219Z,20.47
2023-02-28T23:30:38.481Z,20.48
2023-02-28T23:33:05.307Z,20.48
2023-02-28T23:35:32.160Z,20.50
2023-02-28T23:37:59.231Z,20.50
2023-02-28T23:40:25.561Z,20.50
2023-02-28T23:42:52.084Z,20.51
2023-02-28T23:45:18.584Z,20.53
2023-02-28T23:47:45.148Z,20.53
2023-02-28T23:50:11.494Z,20.53
2023-02-28T23:52:37.838Z,20.51
2023-02-28T23:55:04.176Z,20.51
2023-02-28T23:57:30.495Z,20.50
2023-02-28T23:59:56.846Z,20.50
